ADDS TAF Data INFO
IDs: Format: Raw Decoded Include METARs

Data at: 1658 UTC 26 Apr 2018

KTEX 261655Z AUTO 28010KT 10SM CLR 10/M13 A3031 RMK AO2 T01031128

KTEX 261120Z 2612/2712 14006KT P6SM SKC
  FM261400 35005KT P6SM SKC
  FM261800 34009KT P6SM SKC
  FM270200 05005KT P6SM SKC
  FM270400 12005KT P6SM SKC